createdAt,value
2019-02-24T00:00:13.375Z,97386.00
2019-02-24T00:01:20.870Z,97391.97
2019-02-24T00:02:24.553Z,97395.84
2019-02-24T00:03:27.988Z,97393.53
2019-02-24T00:04:31.432Z,97389.38
2019-02-24T00:05:34.856Z,97393.75
2019-02-24T00:06:38.288Z,97397.64
2019-02-24T00:07:41.733Z,97398.45
2019-02-24T00:08:45.173Z,97395.05
2019-02-24T00:09:48.666Z,97400.46
2019-02-24T00:10:52.090Z,97397.66
2019-02-24T00:11:55.527Z,97403.89
2019-02-24T00:12:58.964Z,97404.92
2019-02-24T00:14:02.548Z,97403.91
2019-02-24T00:15:07.873Z,97397.75
2019-02-24T00:16:11.320Z,97401.68
2019-02-24T00:17:14.754Z,97398.58
2019-02-24T00:18:18.266Z,97397.00
2019-02-24T00:19:21.713Z,97397.52
2019-02-24T00:20:25.145Z,97404.80
2019-02-24T00:21:28.611Z,97397.80
2019-02-24T00:22:31.993Z,97397.30
2019-02-24T00:23:35.435Z,97390.56
2019-02-24T00:24:38.879Z,97393.63
2019-02-24T00:25:42.400Z,97396.50
2019-02-24T00:26:45.910Z,97392.85
2019-02-24T00:27:49.335Z,97391.83
2019-02-24T00:28:52.790Z,97394.64
2019-02-24T00:29:56.239Z,97396.22
2019-02-24T00:30:59.656Z,97391.05
2019-02-24T00:32:03.087Z,97394.17
2019-02-24T00:33:06.591Z,97392.66
2019-02-24T00:34:10.031Z,97399.61
2019-02-24T00:35:13.474Z,97394.94
2019-02-24T00:36:16.912Z,97395.73
2019-02-24T00:37:20.325Z,97400.17
2019-02-24T00:38:23.888Z,97395.57
2019-02-24T00:39:27.329Z,97396.36
2019-02-24T00:40:30.757Z,97393.77
2019-02-24T00:41:34.175Z,97389.63
2019-02-24T00:42:37.737Z,97391.93
2019-02-24T00:43:41.241Z,97396.82
2019-02-24T00:44:44.672Z,97394.00
2019-02-24T00:45:48.109Z,97390.11
2019-02-24T00:46:51.670Z,97395.28
2019-02-24T00:47:55.089Z,97389.31
2019-02-24T00:48:58.529Z,97385.16
2019-02-24T00:50:01.974Z,97385.95
2019-02-24T00:51:05.460Z,97383.64
2019-02-24T00:52:08.907Z,97387.77
2019-02-24T00:53:12.430Z,97383.14
2019-02-24T00:54:15.864Z,97378.98
2019-02-24T00:55:19.395Z,97379.77
2019-02-24T00:56:22.983Z,97378.70
2019-02-24T00:57:26.419Z,97373.02
2019-02-24T00:58:29.854Z,97369.13
2019-02-24T00:59:33.264Z,97374.02
2019-02-24T01:00:36.797Z,97371.13
2019-02-24T01:01:40.334Z,97363.37
2019-02-24T01:02:43.919Z,97366.70
2019-02-24T01:03:47.414Z,97365.20
2019-02-24T01:04:50.907Z,97365.98
2019-02-24T01:05:54.357Z,97365.98
2019-02-24T01:06:57.784Z,97366.75
2019-02-24T01:08:01.216Z,97364.16
2019-02-24T01:09:06.358Z,97364.67
2019-02-24T01:10:10.146Z,97360.02
2019-02-24T01:11:13.583Z,97356.48
2019-02-24T01:12:17.093Z,97355.70
2019-02-24T01:13:20.529Z,97359.00
2019-02-24T01:14:23.977Z,97361.81
2019-02-24T01:15:27.500Z,97358.97
2019-02-24T01:16:31.001Z,97364.15
2019-02-24T01:17:34.438Z,97365.69
2019-02-24T01:18:38.306Z,97357.98
2019-02-24T01:19:41.824Z,97358.51
2019-02-24T01:20:45.247Z,97366.81
2019-02-24T01:21:48.779Z,97363.17
2019-02-24T01:22:52.303Z,97363.45
2019-02-24T01:23:55.734Z,97365.30
2019-02-24T01:24:59.164Z,97366.61
2019-02-24T01:26:02.606Z,97364.31
2019-02-24T01:27:06.034Z,97364.03
2019-02-24T01:28:09.498Z,97356.04
2019-02-24T01:29:12.933Z,97360.44
2019-02-24T01:30:16.468Z,97353.19
2019-02-24T01:31:19.997Z,97355.55
2019-02-24T01:32:23.426Z,97362.00
2019-02-24T01:33:26.862Z,97355.49
2019-02-24T01:34:30.306Z,97357.80
2019-02-24T01:35:33.737Z,97352.91
2019-02-24T01:36:37.173Z,97353.91
2019-02-24T01:37:40.637Z,97357.77
2019-02-24T01:38:44.058Z,97354.97
2019-02-24T01:39:47.544Z,97352.16
2019-02-24T01:40:50.964Z,97355.27
2019-02-24T01:41:54.388Z,97353.73
2019-02-24T01:42:57.914Z,97357.34
2019-02-24T01:44:01.344Z,97353.69
2019-02-24T01:45:06.322Z,97358.86
2019-02-24T01:46:09.754Z,97347.77
2019-02-24T01:47:13.188Z,97351.90
2019-02-24T01:48:16.640Z,97353.75
2019-02-24T01:49:20.122Z,97350.14
2019-02-24T01:50:23.558Z,97350.66
2019-02-24T01:51:26.984Z,97346.26
2019-02-24T01:52:30.580Z,97347.55
2019-02-24T01:53:34.028Z,97345.72
2019-02-24T01:54:37.451Z,97342.89
2019-02-24T01:55:40.966Z,97351.70
2019-02-24T01:56:44.392Z,97353.24
2019-02-24T01:57:47.879Z,97352.22
2019-02-24T01:58:51.335Z,97352.18
2019-02-24T01:59:54.896Z,97351.20
2019-02-24T02:00:58.405Z,97356.61
2019-02-24T02:02:01.850Z,97354.81
2019-02-24T02:03:05.449Z,97351.20
2019-02-24T02:04:08.899Z,97344.23
2019-02-24T02:05:12.473Z,97348.11
2019-02-24T02:06:15.924Z,97348.36
2019-02-24T02:07:19.497Z,97349.41
2019-02-24T02:08:22.925Z,97345.02
2019-02-24T02:09:26.357Z,97347.09
2019-02-24T02:10:29.838Z,97343.73
2019-02-24T02:11:33.291Z,97343.97
2019-02-24T02:12:36.680Z,97343.67
2019-02-24T02:13:40.106Z,97345.42
2019-02-24T02:14:43.562Z,97346.48
2019-02-24T02:15:47.006Z,97338.73
2019-02-24T02:16:50.429Z,97337.48
2019-02-24T02:17:53.856Z,97330.77
2019-02-24T02:18:57.293Z,97330.76
2019-02-24T02:20:00.822Z,97331.53
2019-02-24T02:21:04.288Z,97329.69
2019-02-24T02:22:07.784Z,97329.19
2019-02-24T02:23:11.284Z,97320.97
2019-02-24T02:24:14.730Z,97317.87
2019-02-24T02:25:18.169Z,97318.89
2019-02-24T02:26:21.667Z,97322.50
2019-02-24T02:27:25.105Z,97323.78
2019-02-24T02:28:28.567Z,97320.12
2019-02-24T02:29:31.992Z,97318.02
2019-02-24T02:30:35.589Z,97318.27
2019-02-24T02:31:39.000Z,97324.22
2019-02-24T02:32:42.711Z,97323.71
2019-02-24T02:33:46.152Z,97315.96
2019-02-24T02:34:49.587Z,97322.70
2019-02-24T02:35:53.025Z,97315.97
2019-02-24T02:36:56.512Z,97319.85
2019-02-24T02:37:59.952Z,97313.44
2019-02-24T02:39:04.320Z,97317.04
2019-02-24T02:40:08.616Z,97318.84
2019-02-24T02:41:12.129Z,97314.21
2019-02-24T02:42:15.564Z,97319.85
2019-02-24T02:43:19.068Z,97319.85
2019-02-24T02:44:22.493Z,97315.23
2019-02-24T02:45:25.973Z,97317.08
2019-02-24T02:46:29.429Z,97318.38
2019-02-24T02:47:32.876Z,97315.00
2019-02-24T02:48:36.297Z,97318.61
2019-02-24T02:49:39.725Z,97317.81
2019-02-24T02:50:43.165Z,97313.93
2019-02-24T02:51:46.691Z,97313.42
2019-02-24T02:52:50.136Z,97316.48
2019-02-24T02:53:53.562Z,97318.28
2019-02-24T02:54:57.059Z,97314.17
2019-02-24T02:56:00.488Z,97314.39
2019-02-24T02:57:03.933Z,97310.57
2019-02-24T02:58:07.449Z,97312.14
2019-02-24T02:59:10.870Z,97312.13
2019-02-24T03:00:34.549Z,97309.55
2019-02-24T03:01:38.047Z,97317.55
2019-02-24T03:02:41.493Z,97311.08
2019-02-24T03:03:44.928Z,97312.43
2019-02-24T03:04:48.360Z,97313.72
2019-02-24T03:06:01.933Z,97315.75
2019-02-24T03:07:07.002Z,97319.85
2019-02-24T03:08:12.157Z,97319.05
2019-02-24T03:09:15.644Z,97323.44
2019-02-24T03:10:19.065Z,97329.62
2019-02-24T03:11:22.540Z,97330.12
2019-02-24T03:12:26.043Z,97329.34
2019-02-24T03:13:29.499Z,97331.92
2019-02-24T03:14:32.990Z,97332.20
2019-02-24T03:15:36.486Z,97328.38
2019-02-24T03:16:39.927Z,97333.06
2019-02-24T03:17:43.405Z,97332.34
2019-02-24T03:18:46.874Z,97328.97
2019-02-24T03:19:50.364Z,97334.95
2019-02-24T03:20:53.795Z,97323.06
2019-02-24T03:21:57.390Z,97327.99
2019-02-24T03:23:00.818Z,97325.92
2019-02-24T03:24:04.267Z,97327.75
2019-02-24T03:25:08.045Z,97329.05
2019-02-24T03:26:11.475Z,97337.55
2019-02-24T03:27:14.953Z,97330.06
2019-02-24T03:28:18.377Z,97329.83
2019-02-24T03:29:21.817Z,97327.00
2019-02-24T03:30:25.263Z,97332.66
2019-02-24T03:31:28.965Z,97331.36
2019-02-24T03:32:32.418Z,97331.59
2019-02-24T03:33:35.874Z,97323.88
2019-02-24T03:34:39.296Z,97324.93
2019-02-24T03:35:42.748Z,97323.37
2019-02-24T03:36:46.158Z,97326.46
2019-02-24T03:37:49.659Z,97327.48
2019-02-24T03:38:53.113Z,97328.77
2019-02-24T03:39:56.580Z,97330.02
2019-02-24T03:41:00.020Z,97324.58
2019-02-24T03:42:03.582Z,97324.35
2019-02-24T03:43:07.047Z,97330.30
2019-02-24T03:44:10.514Z,97324.90
2019-02-24T03:45:14.043Z,97320.78
2019-02-24T03:46:17.474Z,97322.86
2019-02-24T03:47:21.041Z,97317.41
2019-02-24T03:48:24.474Z,97317.14
2019-02-24T03:49:27.997Z,97318.20
2019-02-24T03:50:31.462Z,97315.38
2019-02-24T03:51:34.889Z,97312.28
2019-02-24T03:52:38.465Z,97316.40
2019-02-24T03:53:41.951Z,97314.87
2019-02-24T03:54:45.556Z,97315.38
2019-02-24T03:55:49.129Z,97316.91
2019-02-24T03:56:52.645Z,97324.69
2019-02-24T03:57:56.297Z,97317.45
2019-02-24T03:58:59.972Z,97316.67
2019-02-24T04:00:03.865Z,97322.86
2019-02-24T04:01:07.319Z,97314.59
2019-02-24T04:02:10.894Z,97317.42
2019-02-24T04:03:14.486Z,97314.05
2019-02-24T04:04:18.080Z,97322.31
2019-02-24T04:05:21.667Z,97323.13
2019-02-24T04:06:25.170Z,97319.77
2019-02-24T04:07:28.590Z,97319.52
2019-02-24T04:08:32.028Z,97315.64
2019-02-24T04:09:35.521Z,97315.91
2019-02-24T04:10:38.982Z,97317.20
2019-02-24T04:11:42.491Z,97322.10
2019-02-24T04:12:45.987Z,97319.01
2019-02-24T04:13:49.487Z,97312.83
2019-02-24T04:14:52.907Z,97319.25
2019-02-24T04:15:56.371Z,97316.40
2019-02-24T04:16:59.796Z,97308.92
2019-02-24T04:18:03.228Z,97317.69
2019-02-24T04:19:06.713Z,97310.48
2019-02-24T04:20:10.278Z,97318.74
2019-02-24T04:21:13.730Z,97321.05
2019-02-24T04:22:17.167Z,97316.16
2019-02-24T04:23:20.596Z,97320.00
2019-02-24T04:24:24.040Z,97318.23
2019-02-24T04:25:27.457Z,97322.11
2019-02-24T04:26:31.244Z,97317.74
2019-02-24T04:27:34.669Z,97319.28
2019-02-24T04:28:38.097Z,97313.33
2019-02-24T04:29:41.522Z,97311.02
2019-02-24T04:30:44.939Z,97308.92
2019-02-24T04:31:48.405Z,97310.98
2019-02-24T04:32:51.843Z,97320.78
2019-02-24T04:33:55.279Z,97323.83
2019-02-24T04:34:58.709Z,97321.48
2019-02-24T04:36:02.136Z,97317.65
2019-02-24T04:37:05.616Z,97311.23
2019-02-24T04:38:09.117Z,97308.65
2019-02-24T04:39:12.556Z,97312.28
2019-02-24T04:40:15.983Z,97310.72
2019-02-24T04:41:19.417Z,97318.23
2019-02-24T04:42:22.870Z,97317.18
2019-02-24T04:43:26.294Z,97317.96
2019-02-24T04:44:29.728Z,97317.45
2019-02-24T04:45:33.157Z,97313.84
2019-02-24T04:46:36.762Z,97315.14
2019-02-24T04:47:40.213Z,97318.23
2019-02-24T04:48:43.640Z,97318.50
2019-02-24T04:49:47.063Z,97316.43
2019-02-24T04:50:50.494Z,97320.30
2019-02-24T04:51:53.986Z,97314.11
2019-02-24T04:52:57.430Z,97313.33
2019-02-24T04:54:00.854Z,97321.08
2019-02-24T04:55:05.116Z,97315.40
2019-02-24T04:56:08.542Z,97314.38
2019-02-24T04:57:11.989Z,97319.55
2019-02-24T04:58:15.426Z,97322.12
2019-02-24T04:59:18.877Z,97316.19
2019-02-24T05:00:22.307Z,97313.84
2019-02-24T05:01:25.744Z,97313.81
2019-02-24T05:02:29.185Z,97315.91
2019-02-24T05:03:32.633Z,97316.94
2019-02-24T05:04:36.078Z,97312.80
2019-02-24T05:05:39.511Z,97312.31
2019-02-24T05:06:42.939Z,97321.35
2019-02-24T05:07:46.385Z,97316.19
2019-02-24T05:08:49.898Z,97318.50
2019-02-24T05:09:53.356Z,97317.73
2019-02-24T05:10:56.789Z,97316.20
2019-02-24T05:12:00.231Z,97313.88
2019-02-24T05:13:03.669Z,97315.17
2019-02-24T05:14:07.181Z,97316.97
2019-02-24T05:15:10.691Z,97318.53
2019-02-24T05:16:14.131Z,97326.78
2019-02-24T05:17:17.557Z,97319.55
2019-02-24T05:18:21.002Z,97318.78
2019-02-24T05:19:24.469Z,97322.64
2019-02-24T05:20:27.901Z,97321.11
2019-02-24T05:21:31.467Z,97324.72
2019-02-24T05:22:35.003Z,97323.18
2019-02-24T05:23:38.401Z,97333.48
2019-02-24T05:24:41.871Z,97330.91
2019-02-24T05:25:45.300Z,97336.59
2019-02-24T05:26:48.738Z,97341.25
2019-02-24T05:27:52.171Z,97338.15
2019-02-24T05:28:55.669Z,97341.77
2019-02-24T05:29:59.190Z,97341.24
2019-02-24T05:31:02.734Z,97344.34
2019-02-24T05:32:06.172Z,97348.97
2019-02-24T05:33:09.603Z,97354.15
2019-02-24T05:34:13.048Z,97354.39
2019-02-24T05:35:16.504Z,97352.33
2019-02-24T05:36:19.963Z,97347.69
2019-02-24T05:37:23.401Z,97350.02
2019-02-24T05:38:26.826Z,97346.93
2019-02-24T05:39:30.249Z,97355.17
2019-02-24T05:40:33.744Z,97348.20
2019-02-24T05:41:37.204Z,97349.51
2019-02-24T05:42:42.502Z,97352.08
2019-02-24T05:43:45.791Z,97349.00
2019-02-24T05:44:49.240Z,97350.02
2019-02-24T05:45:52.763Z,97348.73
2019-02-24T05:46:56.220Z,97349.23
2019-02-24T05:47:59.676Z,97345.38
2019-02-24T05:49:03.120Z,97353.91
2019-02-24T05:50:07.088Z,97351.55
2019-02-24T05:51:10.611Z,97348.73
2019-02-24T05:52:14.067Z,97356.72
2019-02-24T05:53:17.493Z,97351.83
2019-02-24T05:54:20.936Z,97352.33
2019-02-24T05:55:24.368Z,97352.61
2019-02-24T05:56:27.813Z,97354.16
2019-02-24T05:57:31.269Z,97352.34
2019-02-24T05:58:34.692Z,97351.56
2019-02-24T05:59:38.121Z,97351.03
2019-02-24T06:00:41.566Z,97349.50
2019-02-24T06:01:45.028Z,97352.34
2019-02-24T06:02:48.521Z,97354.92
2019-02-24T06:03:52.030Z,97359.84
2019-02-24T06:04:55.460Z,97357.00
2019-02-24T06:05:58.893Z,97364.97
2019-02-24T06:07:02.347Z,97363.17
2019-02-24T06:08:05.785Z,97363.45
2019-02-24T06:09:09.210Z,97359.56
2019-02-24T06:10:12.647Z,97362.94
2019-02-24T06:11:16.074Z,97358.55
2019-02-24T06:12:19.521Z,97359.32
2019-02-24T06:13:22.949Z,97357.00
2019-02-24T06:14:26.393Z,97358.79
2019-02-24T06:15:29.899Z,97360.10
2019-02-24T06:16:33.331Z,97352.61
2019-02-24T06:17:36.775Z,97359.58
2019-02-24T06:18:40.229Z,97362.69
2019-02-24T06:19:43.655Z,97365.27
2019-02-24T06:20:47.086Z,97361.39
2019-02-24T06:21:50.528Z,97362.14
2019-02-24T06:22:53.978Z,97366.80
2019-02-24T06:23:57.505Z,97370.17
2019-02-24T06:25:00.938Z,97368.62
2019-02-24T06:26:04.455Z,97370.16
2019-02-24T06:27:07.894Z,97374.28
2019-02-24T06:28:11.369Z,97367.31
2019-02-24T06:29:14.834Z,97370.14
2019-02-24T06:30:18.257Z,97373.52
2019-02-24T06:31:21.685Z,97368.34
2019-02-24T06:32:25.128Z,97368.34
2019-02-24T06:33:28.574Z,97373.00
2019-02-24T06:34:32.011Z,97377.39
2019-02-24T06:35:36.053Z,97370.15
2019-02-24T06:36:39.516Z,97375.31
2019-02-24T06:37:43.004Z,97372.48
2019-02-24T06:38:46.454Z,97375.31
2019-02-24T06:39:49.893Z,97379.46
2019-02-24T06:40:53.411Z,97382.29
2019-02-24T06:41:56.829Z,97377.63
2019-02-24T06:43:00.271Z,97376.61
2019-02-24T06:44:04.139Z,97383.31
2019-02-24T06:45:09.190Z,97380.48
2019-02-24T06:46:12.802Z,97372.23
2019-02-24T06:47:16.413Z,97370.66
2019-02-24T06:48:19.905Z,97374.80
2019-02-24T06:49:23.374Z,97368.61
2019-02-24T06:50:35.082Z,97371.45
2019-02-24T06:51:34.116Z,97369.12
2019-02-24T06:52:37.742Z,97375.33
2019-02-24T06:53:41.161Z,97375.57
2019-02-24T06:54:44.743Z,97378.44
2019-02-24T06:55:48.313Z,97375.59
2019-02-24T06:56:51.822Z,97379.46
2019-02-24T06:57:55.308Z,97390.06
2019-02-24T06:58:58.748Z,97382.83
2019-02-24T07:00:02.321Z,97388.75
2019-02-24T07:01:05.752Z,97388.52
2019-02-24T07:02:09.303Z,97386.95
2019-02-24T07:03:12.845Z,97394.17
2019-02-24T07:04:16.271Z,97393.40
2019-02-24T07:05:19.724Z,97393.41
2019-02-24T07:06:23.219Z,97389.02
2019-02-24T07:07:26.786Z,97386.44
2019-02-24T07:08:30.251Z,97389.52
2019-02-24T07:09:33.707Z,97381.26
2019-02-24T07:10:37.135Z,97391.84
2019-02-24T07:11:40.570Z,97386.16
2019-02-24T07:12:44.086Z,97388.22
2019-02-24T07:13:47.566Z,97387.44
2019-02-24T07:14:51.012Z,97390.55
2019-02-24T07:15:54.544Z,97387.45
2019-02-24T07:16:58.082Z,97389.28
2019-02-24T07:18:01.683Z,97397.02
2019-02-24T07:19:05.185Z,97400.88
2019-02-24T07:20:08.753Z,97404.25
2019-02-24T07:21:12.280Z,97403.98
2019-02-24T07:22:15.990Z,97408.38
2019-02-24T07:23:19.520Z,97413.03
2019-02-24T07:24:22.950Z,97413.55
2019-02-24T07:25:26.529Z,97415.11
2019-02-24T07:26:30.098Z,97418.47
2019-02-24T07:27:33.521Z,97428.04
2019-02-24T07:28:37.080Z,97424.14
2019-02-24T07:29:40.677Z,97434.22
2019-02-24T07:30:44.155Z,97434.20
2019-02-24T07:31:47.731Z,97442.73
2019-02-24T07:32:51.140Z,97440.16
2019-02-24T07:33:54.649Z,97446.08
2019-02-24T07:34:58.153Z,97446.38
2019-02-24T07:36:01.756Z,97451.00
2019-02-24T07:37:12.742Z,97457.20
2019-02-24T07:38:10.589Z,97454.11
2019-02-24T07:39:14.041Z,97452.30
2019-02-24T07:40:17.644Z,97456.71
2019-02-24T07:41:21.098Z,97455.15
2019-02-24T07:42:24.684Z,97458.25
2019-02-24T07:43:28.156Z,97463.67
2019-02-24T07:44:31.642Z,97461.59
2019-02-24T07:45:35.159Z,97467.05
2019-02-24T07:46:38.779Z,97463.41
2019-02-24T07:47:42.259Z,97455.89
2019-02-24T07:48:47.595Z,97459.53
2019-02-24T07:49:51.384Z,97462.63
2019-02-24T07:50:55.098Z,97466.23
2019-02-24T07:51:58.587Z,97467.27
2019-02-24T07:53:02.104Z,97464.67
2019-02-24T07:54:05.527Z,97463.66
2019-02-24T07:55:08.964Z,97464.95
2019-02-24T07:56:12.389Z,97465.70
2019-02-24T07:57:15.907Z,97456.61
2019-02-24T07:58:19.348Z,97466.20
2019-02-24T07:59:22.866Z,97463.34
2019-02-24T08:00:32.254Z,97459.73
2019-02-24T08:01:31.504Z,97461.78
2019-02-24T08:02:34.928Z,97466.20
2019-02-24T08:03:38.372Z,97466.17
2019-02-24T08:04:41.836Z,97462.80
2019-02-24T08:05:45.261Z,97466.12
2019-02-24T08:06:48.706Z,97466.12
2019-02-24T08:07:52.129Z,97469.22
2019-02-24T08:08:55.588Z,97470.78
2019-02-24T08:09:59.033Z,97471.56
2019-02-24T08:11:02.430Z,97470.23
2019-02-24T08:12:05.996Z,97469.95
2019-02-24T08:13:09.440Z,97467.63
2019-02-24T08:14:12.889Z,97472.80
2019-02-24T08:15:16.453Z,97467.34
2019-02-24T08:16:19.877Z,97473.27
2019-02-24T08:17:23.318Z,97466.79
2019-02-24T08:18:26.808Z,97469.66
2019-02-24T08:19:30.278Z,97474.59
2019-02-24T08:20:33.697Z,97477.97
2019-02-24T08:21:37.278Z,97472.00
2019-02-24T08:22:40.693Z,97471.73
2019-02-24T08:23:44.204Z,97467.06
2019-02-24T08:24:47.739Z,97466.78
2019-02-24T08:25:51.138Z,97458.50
2019-02-24T08:26:54.712Z,97458.00
2019-02-24T08:27:58.156Z,97445.84
2019-02-24T08:29:01.585Z,97444.27
2019-02-24T08:30:10.860Z,97441.39
2019-02-24T08:31:14.307Z,97429.45
2019-02-24T08:32:17.745Z,97425.61
2019-02-24T08:33:21.183Z,97423.27
2019-02-24T08:34:24.605Z,97425.32
2019-02-24T08:35:28.066Z,97422.95
2019-02-24T08:36:31.544Z,97414.16
2019-02-24T08:37:34.982Z,97407.39
2019-02-24T08:38:40.356Z,97406.83
2019-02-24T08:39:43.752Z,97405.80
2019-02-24T08:40:47.214Z,97414.06
2019-02-24T08:41:50.634Z,97406.53
2019-02-24T08:42:54.067Z,97408.09
2019-02-24T08:43:57.564Z,97402.40
2019-02-24T08:45:01.053Z,97399.53
2019-02-24T08:46:04.632Z,97395.07
2019-02-24T08:47:08.062Z,97397.42
2019-02-24T08:48:11.558Z,97384.20
2019-02-24T08:49:14.980Z,97391.24
2019-02-24T08:50:18.602Z,97389.78
2019-02-24T08:51:23.358Z,97386.91
2019-02-24T08:52:26.876Z,97385.29
2019-02-24T08:53:30.322Z,97388.88
2019-02-24T08:54:33.814Z,97379.48
2019-02-24T08:55:37.240Z,97381.75
2019-02-24T08:56:40.697Z,97385.62
2019-02-24T08:57:44.133Z,97390.02
2019-02-24T08:58:47.563Z,97387.93
2019-02-24T08:59:51.067Z,97387.40
2019-02-24T09:00:54.660Z,97388.41
2019-02-24T09:01:58.100Z,97388.34
2019-02-24T09:03:01.561Z,97383.61
2019-02-24T09:04:05.079Z,97386.69
2019-02-24T09:05:08.642Z,97377.11
2019-02-24T09:06:12.140Z,97381.30
2019-02-24T09:07:15.595Z,97367.55
2019-02-24T09:08:19.053Z,97371.93
2019-02-24T09:09:22.504Z,97366.73
2019-02-24T09:10:26.066Z,97370.77
2019-02-24T09:11:29.498Z,97365.80
2019-02-24T09:12:32.941Z,97363.87
2019-02-24T09:13:36.462Z,97363.00
2019-02-24T09:14:39.908Z,97373.83
2019-02-24T09:15:43.330Z,97365.22
2019-02-24T09:16:46.808Z,97374.33
2019-02-24T09:17:50.255Z,97373.80
2019-02-24T09:18:53.782Z,97376.41
2019-02-24T09:19:57.279Z,97378.92
2019-02-24T09:21:00.742Z,97380.17
2019-02-24T09:22:04.135Z,97379.86
2019-02-24T09:23:07.579Z,97384.43
2019-02-24T09:24:11.011Z,97387.75
2019-02-24T09:25:14.625Z,97390.81
2019-02-24T09:26:18.627Z,97396.45
2019-02-24T09:27:22.185Z,97403.64
2019-02-24T09:28:25.706Z,97409.50
2019-02-24T09:29:29.146Z,97416.23
2019-02-24T09:30:32.610Z,97416.91
2019-02-24T09:31:36.114Z,97417.56
2019-02-24T09:32:39.628Z,97413.09
2019-02-24T09:33:43.087Z,97413.55
2019-02-24T09:34:46.672Z,97408.78
2019-02-24T09:35:51.711Z,97392.13
2019-02-24T09:36:55.346Z,97398.80
2019-02-24T09:37:58.778Z,97399.22
2019-02-24T09:39:02.506Z,97398.89
2019-02-24T09:40:10.740Z,97401.75
2019-02-24T09:41:14.174Z,97397.56
2019-02-24T09:42:17.743Z,97405.20
2019-02-24T09:43:21.262Z,97400.22
2019-02-24T09:44:24.776Z,97400.34
2019-02-24T09:45:28.299Z,97393.23
2019-02-24T09:46:31.884Z,97378.41
2019-02-24T09:47:35.471Z,97378.41
2019-02-24T09:48:38.976Z,97376.39
2019-02-24T09:49:42.420Z,97375.09
2019-02-24T09:50:45.957Z,97378.66
2019-02-24T09:51:49.389Z,97391.03
2019-02-24T09:52:52.823Z,97393.56
2019-02-24T09:53:56.276Z,97396.65
2019-02-24T09:54:59.809Z,97400.70
2019-02-24T09:56:03.348Z,97405.38
2019-02-24T09:57:06.780Z,97409.89
2019-02-24T09:58:10.328Z,97420.14
2019-02-24T09:59:13.757Z,97430.36
2019-02-24T10:00:17.593Z,97431.89
2019-02-24T10:01:21.098Z,97431.73
2019-02-24T10:02:24.534Z,97434.44
2019-02-24T10:03:28.043Z,97442.35
2019-02-24T10:04:31.483Z,97438.37
2019-02-24T10:05:34.924Z,97452.83
2019-02-24T10:06:38.456Z,97452.05
2019-02-24T10:07:42.029Z,97450.23
2019-02-24T10:08:45.522Z,97435.72
2019-02-24T10:09:48.945Z,97431.47
2019-02-24T10:10:52.420Z,97431.66
2019-02-24T10:11:55.864Z,97427.18
2019-02-24T10:12:59.271Z,97422.97
2019-02-24T10:14:02.706Z,97419.63
2019-02-24T10:15:08.690Z,97414.42
2019-02-24T10:16:12.148Z,97418.89
2019-02-24T10:17:15.574Z,97419.80
2019-02-24T10:18:18.995Z,97427.15
2019-02-24T10:19:22.425Z,97430.35
2019-02-24T10:20:25.858Z,97434.14
2019-02-24T10:21:29.306Z,97435.78
2019-02-24T10:22:32.830Z,97436.43
2019-02-24T10:23:36.268Z,97435.76
2019-02-24T10:24:39.766Z,97433.50
2019-02-24T10:25:43.205Z,97434.48
2019-02-24T10:26:46.674Z,97437.94
2019-02-24T10:27:50.109Z,97438.70
2019-02-24T10:28:53.537Z,97435.16
2019-02-24T10:29:56.965Z,97430.59
2019-02-24T10:31:01.585Z,97432.20
2019-02-24T10:32:05.102Z,97437.72
2019-02-24T10:33:08.577Z,97429.89
2019-02-24T10:34:11.980Z,97429.78
2019-02-24T10:35:15.416Z,97427.23
2019-02-24T10:36:18.848Z,97423.37
2019-02-24T10:37:22.305Z,97419.63
2019-02-24T10:38:25.829Z,97425.79
2019-02-24T10:39:29.971Z,97424.91
2019-02-24T10:40:33.441Z,97423.73
2019-02-24T10:41:36.895Z,97419.83
2019-02-24T10:42:40.354Z,97425.63
2019-02-24T10:43:43.855Z,97424.55
2019-02-24T10:44:47.299Z,97421.34
2019-02-24T10:45:50.814Z,97420.30
2019-02-24T10:46:54.244Z,97427.63
2019-02-24T10:47:57.700Z,97423.38
2019-02-24T10:49:03.657Z,97432.84
2019-02-24T10:50:09.662Z,97431.81
2019-02-24T10:51:13.095Z,97433.39
2019-02-24T10:52:16.618Z,97430.23
2019-02-24T10:53:20.070Z,97434.05
2019-02-24T10:54:23.581Z,97435.61
2019-02-24T10:55:27.004Z,97437.97
2019-02-24T10:56:30.450Z,97436.45
2019-02-24T10:57:33.880Z,97442.25
2019-02-24T10:58:37.403Z,97437.12
2019-02-24T10:59:40.858Z,97438.31
2019-02-24T11:00:44.375Z,97437.37
2019-02-24T11:01:47.872Z,97439.92
2019-02-24T11:02:51.363Z,97448.81
2019-02-24T11:03:54.876Z,97443.70
2019-02-24T11:04:58.318Z,97448.50
2019-02-24T11:06:01.762Z,97442.25
2019-02-24T11:07:05.293Z,97437.14
2019-02-24T11:08:08.708Z,97436.30
2019-02-24T11:09:12.222Z,97432.02
2019-02-24T11:10:15.898Z,97435.41
2019-02-24T11:11:19.626Z,97426.68
2019-02-24T11:12:23.028Z,97418.48
2019-02-24T11:13:26.442Z,97418.73
2019-02-24T11:14:29.898Z,97426.09
2019-02-24T11:15:33.341Z,97419.16
2019-02-24T11:16:36.848Z,97423.02
2019-02-24T11:17:40.282Z,97422.39
2019-02-24T11:18:43.701Z,97417.52
2019-02-24T11:19:47.288Z,97417.40
2019-02-24T11:20:50.729Z,97413.64
2019-02-24T11:21:54.228Z,97411.09
2019-02-24T11:22:57.741Z,97412.92
2019-02-24T11:24:01.239Z,97405.02
2019-02-24T11:25:06.167Z,97409.72
2019-02-24T11:26:09.662Z,97403.44
2019-02-24T11:27:13.188Z,97409.53
2019-02-24T11:28:16.609Z,97409.87
2019-02-24T11:29:20.126Z,97400.11
2019-02-24T11:30:23.663Z,97409.72
2019-02-24T11:31:27.114Z,97406.80
2019-02-24T11:32:30.627Z,97402.05
2019-02-24T11:33:34.180Z,97406.67
2019-02-24T11:34:37.627Z,97400.20
2019-02-24T11:35:41.204Z,97403.22
2019-02-24T11:36:44.612Z,97404.16
2019-02-24T11:37:48.040Z,97404.80
2019-02-24T11:38:51.547Z,97403.84
2019-02-24T11:39:55.000Z,97405.70
2019-02-24T11:40:58.531Z,97401.86
2019-02-24T11:42:01.951Z,97404.70
2019-02-24T11:43:05.481Z,97407.84
2019-02-24T11:44:08.973Z,97410.52
2019-02-24T11:45:12.461Z,97404.70
2019-02-24T11:46:15.907Z,97404.58
2019-02-24T11:47:19.358Z,97409.67
2019-02-24T11:48:22.782Z,97405.62
2019-02-24T11:49:26.207Z,97400.95
2019-02-24T11:50:29.637Z,97396.96
2019-02-24T11:51:33.119Z,97395.59
2019-02-24T11:52:36.625Z,97397.11
2019-02-24T11:53:40.048Z,97402.41
2019-02-24T11:54:43.483Z,97401.73
2019-02-24T11:55:48.841Z,97401.20
2019-02-24T11:56:52.218Z,97409.90
2019-02-24T11:57:55.667Z,97413.77
2019-02-24T11:58:59.099Z,97415.77
2019-02-24T12:00:02.589Z,97418.45
2019-02-24T12:01:06.184Z,97407.39
2019-02-24T12:02:09.661Z,97405.70
2019-02-24T12:03:13.114Z,97395.48
2019-02-24T12:04:16.540Z,97400.65
2019-02-24T12:05:19.958Z,97400.19
2019-02-24T12:06:23.397Z,97406.17
2019-02-24T12:07:26.881Z,97405.95
2019-02-24T12:08:30.539Z,97406.87
2019-02-24T12:09:33.985Z,97408.03
2019-02-24T12:10:37.435Z,97405.56
2019-02-24T12:11:40.864Z,97408.42
2019-02-24T12:12:44.384Z,97407.47
2019-02-24T12:13:47.810Z,97406.17
2019-02-24T12:14:51.235Z,97412.25
2019-02-24T12:15:54.927Z,97402.87
2019-02-24T12:16:58.445Z,97408.49
2019-02-24T12:18:01.894Z,97407.64
2019-02-24T12:19:05.308Z,97408.56
2019-02-24T12:20:12.541Z,97409.41
2019-02-24T12:21:15.973Z,97409.02
2019-02-24T12:22:19.391Z,97410.06
2019-02-24T12:23:22.835Z,97414.77
2019-02-24T12:24:26.273Z,97412.61
2019-02-24T12:25:29.826Z,97413.67
2019-02-24T12:26:35.146Z,97412.08